createdAt,value
2023-03-28T00:01:07.487Z,77.99
2023-03-28T00:03:36.329Z,78.38
2023-03-28T00:06:05.614Z,78.62
2023-03-28T00:08:33.583Z,78.31
2023-03-28T00:11:04.490Z,78.59
2023-03-28T00:13:33.611Z,77.75
2023-03-28T00:16:05.743Z,78.33
2023-03-28T00:18:38.992Z,78.13
2023-03-28T00:21:09.985Z,77.95
2023-03-28T00:23:37.306Z,78.33
2023-03-28T00:26:08.632Z,78.04
2023-03-28T00:28:37.979Z,78.17
2023-03-28T00:31:05.822Z,77.81
2023-03-28T00:33:33.178Z,77.95
2023-03-28T00:36:00.653Z,78.02
2023-03-28T00:38:28.654Z,76.94
2023-03-28T00:40:57.646Z,76.64
2023-03-28T00:43:40.083Z,76.78
2023-03-28T00:46:09.668Z,77.09
2023-03-28T00:48:37.526Z,76.45
2023-03-28T00:51:05.607Z,75.91
2023-03-28T00:53:33.872Z,76.41
2023-03-28T00:56:04.146Z,76.58
2023-03-28T00:58:32.922Z,76.53
2023-03-28T01:01:01.664Z,76.59
2023-03-28T01:03:30.859Z,76.50
2023-03-28T01:05:58.990Z,75.59
2023-03-28T01:08:29.243Z,75.63
2023-03-28T01:10:56.591Z,75.76
2023-03-28T01:13:26.369Z,75.35
2023-03-28T01:15:53.776Z,74.52
2023-03-28T01:18:23.846Z,74.37
2023-03-28T01:21:02.964Z,74.75
2023-03-28T01:23:44.077Z,74.91
2023-03-28T01:26:26.999Z,76.25
2023-03-28T01:29:01.420Z,76.12
2023-03-28T01:31:46.246Z,75.90
2023-03-28T01:34:26.186Z,75.36
2023-03-28T01:37:06.695Z,74.78
2023-03-28T01:39:46.764Z,74.51
2023-03-28T01:42:20.466Z,74.29
2023-03-28T01:44:50.372Z,73.80
2023-03-28T01:47:20.516Z,73.42
2023-03-28T01:49:51.991Z,73.45
2023-03-28T01:52:23.738Z,73.05
2023-03-28T01:54:55.866Z,73.08
2023-03-28T01:57:25.881Z,73.72
2023-03-28T01:59:56.723Z,72.95
2023-03-28T02:02:27.336Z,74.11
2023-03-28T02:04:57.401Z,73.96
2023-03-28T02:07:27.097Z,74.36
2023-03-28T02:09:55.854Z,74.22
2023-03-28T02:12:25.275Z,74.60
2023-03-28T02:14:53.949Z,74.84
2023-03-28T02:17:23.411Z,75.80
2023-03-28T02:19:53.544Z,75.00
2023-03-28T02:22:24.002Z,75.64
2023-03-28T02:24:52.614Z,75.41
2023-03-28T02:27:20.958Z,75.81
2023-03-28T02:29:49.282Z,75.64
2023-03-28T02:32:16.791Z,75.19
2023-03-28T02:34:45.497Z,75.19
2023-03-28T02:37:16.889Z,75.62
2023-03-28T02:39:51.492Z,75.82
2023-03-28T02:42:39.754Z,75.93
2023-03-28T02:45:19.946Z,76.62
2023-03-28T02:47:53.175Z,76.83
2023-03-28T02:50:26.459Z,78.14
2023-03-28T02:52:56.377Z,79.25
2023-03-28T02:55:26.352Z,81.00
2023-03-28T02:57:56.714Z,82.67
2023-03-28T03:00:25.309Z,84.39
2023-03-28T03:02:52.881Z,85.02
2023-03-28T03:05:21.082Z,85.97
2023-03-28T03:07:49.657Z,86.19
2023-03-28T03:10:17.900Z,86.94
2023-03-28T03:12:45.298Z,87.67
2023-03-28T03:15:12.903Z,87.53
2023-03-28T03:17:41.682Z,87.97
2023-03-28T03:20:09.776Z,87.67
2023-03-28T03:22:37.313Z,86.19
2023-03-28T03:25:06.641Z,86.04
2023-03-28T03:27:34.483Z,85.52
2023-03-28T03:30:01.824Z,85.51
2023-03-28T03:32:29.166Z,85.70
2023-03-28T03:34:57.894Z,87.18
2023-03-28T03:37:25.225Z,88.18
2023-03-28T03:39:52.492Z,89.60
2023-03-28T03:42:19.755Z,91.02
2023-03-28T03:44:47.001Z,91.68
2023-03-28T03:47:14.961Z,92.89
2023-03-28T03:49:42.209Z,93.04
2023-03-28T03:52:10.805Z,93.11
2023-03-28T03:54:38.398Z,94.35
2023-03-28T03:57:06.162Z,95.61
2023-03-28T03:59:33.524Z,96.12
2023-03-28T04:02:00.986Z,96.42
2023-03-28T04:04:28.469Z,95.29
2023-03-28T04:06:58.049Z,95.75
2023-03-28T04:09:27.934Z,95.30
2023-03-28T04:11:55.233Z,94.86
2023-03-28T04:14:22.885Z,94.05
2023-03-28T04:16:50.771Z,93.67
2023-03-28T04:19:19.049Z,93.63
2023-03-28T04:21:48.032Z,92.65
2023-03-28T04:24:15.635Z,91.34
2023-03-28T04:26:45.923Z,91.74
2023-03-28T04:29:13.641Z,91.62
2023-03-28T04:31:40.964Z,90.54
2023-03-28T04:34:08.876Z,89.73
2023-03-28T04:36:37.604Z,89.49
2023-03-28T04:39:05.125Z,89.15
2023-03-28T04:41:33.104Z,88.91
2023-03-28T04:44:02.725Z,89.07
2023-03-28T04:46:30.433Z,89.28
2023-03-28T04:48:57.691Z,89.70
2023-03-28T04:51:25.295Z,89.74
2023-03-28T04:53:52.694Z,90.50
2023-03-28T04:56:20.071Z,90.44
2023-03-28T04:58:47.328Z,89.70
2023-03-28T05:01:15.939Z,89.78
2023-03-28T05:03:43.223Z,89.60
2023-03-28T05:06:10.760Z,89.50
2023-03-28T05:08:38.330Z,89.76
2023-03-28T05:11:05.735Z,89.60
2023-03-28T05:13:34.736Z,89.28
2023-03-28T05:16:02.037Z,89.08
2023-03-28T05:18:30.649Z,89.24
2023-03-28T05:20:58.063Z,88.36
2023-03-28T05:23:25.895Z,88.05
2023-03-28T05:25:53.690Z,87.58
2023-03-28T05:28:21.232Z,87.00
2023-03-28T05:30:48.804Z,86.27
2023-03-28T05:33:16.194Z,86.79
2023-03-28T05:35:44.902Z,86.11
2023-03-28T05:38:12.329Z,85.30
2023-03-28T05:40:39.602Z,84.89
2023-03-28T05:43:06.988Z,84.55
2023-03-28T05:45:34.307Z,84.26
2023-03-28T05:48:01.611Z,83.46
2023-03-28T05:50:29.030Z,83.00
2023-03-28T05:52:57.663Z,82.08
2023-03-28T05:55:24.975Z,81.91
2023-03-28T05:57:52.684Z,81.66
2023-03-28T06:00:20.317Z,81.37
2023-03-28T06:02:47.683Z,80.49
2023-03-28T06:05:15.076Z,80.79
2023-03-28T06:07:43.293Z,79.60
2023-03-28T06:10:13.102Z,78.50
2023-03-28T06:12:40.637Z,77.77
2023-03-28T06:15:08.373Z,78.35
2023-03-28T06:17:35.740Z,77.90
2023-03-28T06:20:04.225Z,77.24
2023-03-28T06:22:31.546Z,76.83
2023-03-28T06:24:59.224Z,76.84
2023-03-28T06:27:27.852Z,76.51
2023-03-28T06:29:55.188Z,75.95
2023-03-28T06:32:22.554Z,76.22
2023-03-28T06:34:49.907Z,75.49
2023-03-28T06:37:17.279Z,76.58
2023-03-28T06:39:44.552Z,76.47
2023-03-28T06:42:11.814Z,74.62
2023-03-28T06:44:40.705Z,73.79
2023-03-28T06:47:07.989Z,72.87
2023-03-28T06:49:35.320Z,73.97
2023-03-28T06:52:02.877Z,72.64
2023-03-28T06:54:30.468Z,72.18
2023-03-28T06:56:57.768Z,72.69
2023-03-28T06:59:25.401Z,72.29
2023-03-28T07:01:54.023Z,72.80
2023-03-28T07:04:21.338Z,72.21
2023-03-28T07:06:49.329Z,72.35
2023-03-28T07:09:16.714Z,71.56
2023-03-28T07:11:44.001Z,69.57
2023-03-28T07:14:11.272Z,69.27
2023-03-28T07:16:38.621Z,68.90
2023-03-28T07:19:07.561Z,68.96
2023-03-28T07:21:35.056Z,67.29
2023-03-28T07:24:02.383Z,67.04
2023-03-28T07:26:29.796Z,66.03
2023-03-28T07:28:57.076Z,66.82
2023-03-28T07:31:25.717Z,64.99
2023-03-28T07:33:53.051Z,65.89
2023-03-28T07:36:22.515Z,66.66
2023-03-28T07:38:49.898Z,65.66
2023-03-28T07:41:17.319Z,65.63
2023-03-28T07:43:45.006Z,65.76
2023-03-28T07:46:14.273Z,64.63
2023-03-28T07:48:42.111Z,64.44
2023-03-28T07:51:09.998Z,65.35
2023-03-28T07:53:39.018Z,64.64
2023-03-28T07:56:10.474Z,64.91
2023-03-28T07:58:38.412Z,64.51
2023-03-28T08:01:06.423Z,63.95
2023-03-28T08:03:33.865Z,62.55
2023-03-28T08:06:02.809Z,59.81
2023-03-28T08:08:30.773Z,59.83
2023-03-28T08:11:00.076Z,59.49
2023-03-28T08:13:27.640Z,60.96
2023-03-28T08:15:55.912Z,59.43
2023-03-28T08:18:25.051Z,56.45
2023-03-28T08:20:57.989Z,57.00
2023-03-28T08:23:26.488Z,58.14
2023-03-28T08:25:54.355Z,58.03
2023-03-28T08:28:22.968Z,61.09
2023-03-28T08:30:50.282Z,60.72
2023-03-28T08:33:17.613Z,59.50
2023-03-28T08:35:44.977Z,59.18
2023-03-28T08:38:13.252Z,57.78
2023-03-28T08:40:46.571Z,58.99
2023-03-28T08:43:24.506Z,57.29
2023-03-28T08:45:54.839Z,53.50
2023-03-28T08:48:27.012Z,52.70
2023-03-28T08:50:58.737Z,52.04
2023-03-28T08:53:30.274Z,49.22
2023-03-28T08:55:58.428Z,47.40
2023-03-28T08:58:28.180Z,51.76
2023-03-28T09:00:56.807Z,53.83
2023-03-28T09:03:25.158Z,55.40
2023-03-28T09:05:54.709Z,55.94
2023-03-28T09:08:29.025Z,55.25
2023-03-28T09:11:00.377Z,53.42
2023-03-28T09:13:35.446Z,53.00
2023-03-28T09:16:15.180Z,51.66
2023-03-28T09:18:51.797Z,51.49
2023-03-28T09:21:24.445Z,52.25
2023-03-28T09:24:14.423Z,51.04
2023-03-28T09:26:45.322Z,49.09
2023-03-28T09:29:14.762Z,47.90
2023-03-28T09:31:46.494Z,46.10
2023-03-28T09:34:19.839Z,47.60
2023-03-28T09:36:50.244Z,46.95
2023-03-28T09:39:23.895Z,48.12
2023-03-28T09:41:54.362Z,48.97
2023-03-28T09:44:27.051Z,47.15
2023-03-28T09:46:57.444Z,45.31
2023-03-28T09:49:25.792Z,41.95
2023-03-28T09:51:55.372Z,43.79
2023-03-28T09:54:28.582Z,45.90
2023-03-28T09:56:59.383Z,45.85
2023-03-28T09:59:28.704Z,44.88
2023-03-28T10:07:46.115Z,41.83
2023-03-28T10:10:18.463Z,44.45
2023-03-28T10:12:47.396Z,43.84
2023-03-28T10:15:30.372Z,42.74
2023-03-28T10:18:00.399Z,41.81
2023-03-28T10:20:28.088Z,40.74
2023-03-28T10:22:56.918Z,41.05
2023-03-28T10:25:34.265Z,42.65
2023-03-28T10:28:02.150Z,41.37
2023-03-28T10:30:30.711Z,42.34
2023-03-28T10:33:09.838Z,41.52
2023-03-28T10:35:41.352Z,43.22
2023-03-28T10:38:15.257Z,43.75
2023-03-28T10:40:42.732Z,43.50
2023-03-28T10:43:13.046Z,40.35
2023-03-28T10:45:42.551Z,41.46
2023-03-28T10:48:14.446Z,41.42
2023-03-28T10:50:43.176Z,39.26
2023-03-28T10:53:17.524Z,39.24
2023-03-28T10:55:48.399Z,39.85
2023-03-28T10:58:20.435Z,38.35
2023-03-28T11:00:52.384Z,37.73
2023-03-28T11:03:28.483Z,39.26
2023-03-28T11:06:08.845Z,41.75
2023-03-28T11:08:41.386Z,41.71
2023-03-28T11:11:15.227Z,39.92
2023-03-28T11:13:47.071Z,40.36
2023-03-28T11:16:19.568Z,39.84
2023-03-28T11:19:00.274Z,40.97
2023-03-28T11:21:30.467Z,39.26
2023-03-28T11:24:05.940Z,38.31
2023-03-28T11:26:39.959Z,39.54
2023-03-28T11:29:16.696Z,40.22
2023-03-28T11:31:47.482Z,40.94
2023-03-28T11:34:21.846Z,39.77
2023-03-28T11:36:53.339Z,38.83
2023-03-28T11:39:26.386Z,38.14
2023-03-28T11:41:54.673Z,37.85
2023-03-28T11:44:25.067Z,37.98
2023-03-28T11:46:56.727Z,39.84
2023-03-28T11:49:28.791Z,39.57
2023-03-28T11:51:59.736Z,39.22
2023-03-28T11:54:32.065Z,39.82
2023-03-28T11:57:02.078Z,38.52
2023-03-28T11:59:34.054Z,37.08
2023-03-28T12:02:13.274Z,37.30
2023-03-28T12:04:45.973Z,40.23
2023-03-28T12:07:18.677Z,40.01
2023-03-28T12:09:55.460Z,39.49
2023-03-28T12:12:25.096Z,40.19
2023-03-28T12:14:56.181Z,39.81
2023-03-28T12:17:26.850Z,38.94
2023-03-28T12:19:56.405Z,38.19
2023-03-28T12:22:26.913Z,39.80
2023-03-28T12:24:58.201Z,38.18
2023-03-28T12:27:29.415Z,37.80
2023-03-28T12:29:59.110Z,38.80
2023-03-28T12:32:34.454Z,39.59
2023-03-28T12:35:06.722Z,37.76
2023-03-28T12:37:39.689Z,37.98
2023-03-28T12:40:14.403Z,37.53
2023-03-28T12:42:42.929Z,38.81
2023-03-28T12:45:15.614Z,39.99
2023-03-28T12:47:44.196Z,36.99
2023-03-28T12:50:15.943Z,39.05
2023-03-28T12:52:45.403Z,37.99
2023-03-28T12:55:27.593Z,38.71
2023-03-28T12:57:56.255Z,37.52
2023-03-28T13:00:26.738Z,37.71
2023-03-28T13:02:56.396Z,37.47
2023-03-28T13:05:27.336Z,35.67
2023-03-28T13:08:01.356Z,36.58
2023-03-28T13:10:34.349Z,36.72
2023-03-28T13:13:08.633Z,36.29
2023-03-28T13:15:49.313Z,36.33
2023-03-28T13:18:27.759Z,37.48
2023-03-28T13:20:56.684Z,37.72
2023-03-28T13:23:29.097Z,37.40
2023-03-28T13:25:57.249Z,37.20
2023-03-28T13:28:30.020Z,36.61
2023-03-28T13:31:08.010Z,37.43
2023-03-28T13:33:37.245Z,37.54
2023-03-28T13:36:19.943Z,38.16
2023-03-28T13:38:48.140Z,38.94
2023-03-28T13:41:33.150Z,38.70
2023-03-28T13:44:01.802Z,38.65
2023-03-28T13:46:31.628Z,38.39
2023-03-28T13:49:02.753Z,40.47
2023-03-28T13:51:33.756Z,40.80
2023-03-28T13:54:01.216Z,41.04
2023-03-28T13:56:30.088Z,41.85
2023-03-28T13:58:58.672Z,40.27
2023-03-28T14:01:27.361Z,39.63
2023-03-28T14:03:56.162Z,40.86
2023-03-28T14:06:25.089Z,42.12
2023-03-28T14:08:54.956Z,41.71
2023-03-28T14:11:23.766Z,41.92
2023-03-28T14:13:52.633Z,42.12
2023-03-28T14:16:20.653Z,41.88
2023-03-28T14:18:50.431Z,42.14
2023-03-28T14:21:17.750Z,42.49
2023-03-28T14:23:54.271Z,41.60
2023-03-28T14:26:23.578Z,41.13
2023-03-28T14:28:52.322Z,38.40
2023-03-28T14:31:29.561Z,38.57
2023-03-28T14:33:58.392Z,39.48
2023-03-28T14:36:30.650Z,40.09
2023-03-28T14:39:07.313Z,41.05
2023-03-28T14:41:37.473Z,39.89
2023-03-28T14:44:06.567Z,38.99
2023-03-28T14:46:34.092Z,40.20
2023-03-28T14:49:02.876Z,39.51
2023-03-28T14:51:39.679Z,39.53
2023-03-28T14:54:08.325Z,39.04
2023-03-28T14:56:37.278Z,39.49
2023-03-28T14:59:05.487Z,38.80
2023-03-28T15:01:34.207Z,39.88
2023-03-28T15:04:04.044Z,37.97
2023-03-28T15:06:33.194Z,39.39
2023-03-28T15:09:02.072Z,38.94
2023-03-28T15:11:32.465Z,38.26
2023-03-28T15:14:02.688Z,38.43
2023-03-28T15:16:31.284Z,38.89
2023-03-28T15:19:00.209Z,38.07
2023-03-28T15:21:27.722Z,39.40
2023-03-28T15:23:57.228Z,39.35
2023-03-28T15:26:27.726Z,39.56
2023-03-28T15:28:56.167Z,39.07
2023-03-28T15:31:25.337Z,40.17
2023-03-28T15:33:53.362Z,40.37
2023-03-28T15:36:23.458Z,39.32
2023-03-28T15:38:51.553Z,40.00
2023-03-28T15:41:21.597Z,40.37
2023-03-28T15:43:59.368Z,40.97
2023-03-28T15:46:32.018Z,40.82
2023-03-28T15:49:00.716Z,40.53
2023-03-28T15:51:28.584Z,40.22
2023-03-28T15:53:58.700Z,43.85
2023-03-28T15:56:26.964Z,44.43
2023-03-28T15:59:01.763Z,45.43
2023-03-28T16:01:31.162Z,46.01
2023-03-28T16:04:16.988Z,45.88
2023-03-28T16:06:45.507Z,46.18
2023-03-28T16:09:18.094Z,46.03
2023-03-28T16:11:45.897Z,46.23
2023-03-28T16:14:14.498Z,46.22
2023-03-28T16:16:43.275Z,46.62
2023-03-28T16:19:14.456Z,46.41
2023-03-28T16:21:41.710Z,46.73
2023-03-28T16:24:08.970Z,46.81
2023-03-28T16:26:36.277Z,47.27
2023-03-28T16:29:04.149Z,47.46
2023-03-28T16:31:31.610Z,48.48
2023-03-28T16:34:00.571Z,50.13
2023-03-28T16:36:27.841Z,51.80
2023-03-28T16:38:55.138Z,52.13
2023-03-28T16:41:22.523Z,52.26
2023-03-28T16:43:49.789Z,53.12
2023-03-28T16:46:17.086Z,52.76
2023-03-28T16:48:44.520Z,54.24
2023-03-28T16:51:13.138Z,53.52
2023-03-28T16:53:41.031Z,53.83
2023-03-28T16:56:11.825Z,54.07
2023-03-28T16:58:39.175Z,54.18
2023-03-28T17:01:07.279Z,54.85
2023-03-28T17:03:34.817Z,55.46
2023-03-28T17:06:02.677Z,55.17
2023-03-28T17:08:31.387Z,56.13
2023-03-28T17:10:59.923Z,56.71
2023-03-28T17:13:27.268Z,56.21
2023-03-28T17:15:54.580Z,56.96
2023-03-28T17:18:22.045Z,57.37
2023-03-28T17:20:58.684Z,56.87
2023-03-28T17:23:27.308Z,57.60
2023-03-28T17:25:56.374Z,57.37
2023-03-28T17:28:23.996Z,58.71
2023-03-28T17:30:51.942Z,58.91
2023-03-28T17:33:19.603Z,58.52
2023-03-28T17:35:47.174Z,59.46
2023-03-28T17:38:14.774Z,59.86
2023-03-28T17:40:46.689Z,59.81
2023-03-28T17:43:15.347Z,60.06
2023-03-28T17:45:42.680Z,59.58
2023-03-28T17:48:12.346Z,60.94
2023-03-28T17:50:39.768Z,60.88
2023-03-28T17:53:07.696Z,60.88
2023-03-28T17:55:38.856Z,60.29
2023-03-28T17:58:06.184Z,60.65
2023-03-28T18:00:34.755Z,61.13
2023-03-28T18:03:02.096Z,61.32
2023-03-28T18:05:30.297Z,61.20
2023-03-28T18:07:57.633Z,61.72
2023-03-28T18:10:24.986Z,61.41
2023-03-28T18:12:52.576Z,61.82
2023-03-28T18:15:19.825Z,61.65
2023-03-28T18:17:48.420Z,62.56
2023-03-28T18:20:15.792Z,62.58
2023-03-28T18:22:43.319Z,62.53
2023-03-28T18:25:10.711Z,62.94
2023-03-28T18:27:38.148Z,62.97
2023-03-28T18:30:08.162Z,63.75
2023-03-28T18:32:36.253Z,63.79
2023-03-28T18:35:07.069Z,64.53
2023-03-28T18:37:34.760Z,64.24
2023-03-28T18:40:02.384Z,64.74
2023-03-28T18:42:31.308Z,65.57
2023-03-28T18:44:58.577Z,65.20
2023-03-28T18:47:25.965Z,65.67
2023-03-28T18:49:53.229Z,66.13
2023-03-28T18:52:21.809Z,65.64
2023-03-28T18:54:49.224Z,66.18
2023-03-28T18:57:16.895Z,66.06
2023-03-28T18:59:44.232Z,66.66
2023-03-28T19:02:12.619Z,66.84
2023-03-28T19:04:39.955Z,66.51
2023-03-28T19:07:07.470Z,66.97
2023-03-28T19:09:36.125Z,66.58
2023-03-28T19:12:03.895Z,67.27
2023-03-28T19:14:31.274Z,67.61
2023-03-28T19:16:58.776Z,67.82
2023-03-28T19:19:27.018Z,68.59
2023-03-28T19:21:55.091Z,69.01
2023-03-28T19:24:23.317Z,69.00
2023-03-28T19:26:53.166Z,68.83
2023-03-28T19:29:20.655Z,68.47
2023-03-28T19:31:47.928Z,69.05
2023-03-28T19:34:16.496Z,68.88
2023-03-28T19:36:43.818Z,69.20
2023-03-28T19:39:11.107Z,68.98
2023-03-28T19:41:38.505Z,68.77
2023-03-28T19:44:07.156Z,69.08
2023-03-28T19:46:36.345Z,68.76
2023-03-28T19:49:06.898Z,70.91
2023-03-28T19:51:34.553Z,71.86
2023-03-28T19:54:02.041Z,71.37
2023-03-28T19:56:29.370Z,71.17
2023-03-28T19:58:56.850Z,71.93
2023-03-28T20:01:25.605Z,72.61
2023-03-28T20:03:53.426Z,71.78
2023-03-28T20:06:21.467Z,72.17
2023-03-28T20:08:49.085Z,72.34
2023-03-28T20:11:16.790Z,72.70
2023-03-28T20:13:44.380Z,72.92
2023-03-28T20:16:12.842Z,72.62
2023-03-28T20:18:41.787Z,72.46
2023-03-28T20:21:10.185Z,73.30
2023-03-28T20:23:38.073Z,72.94
2023-03-28T20:26:15.702Z,73.00
2023-03-28T20:28:46.154Z,73.15
2023-03-28T20:31:13.640Z,73.03
2023-03-28T20:33:42.542Z,73.30
2023-03-28T20:36:09.967Z,73.74
2023-03-28T20:38:37.349Z,72.92
2023-03-28T20:41:04.860Z,73.42
2023-03-28T20:43:35.725Z,73.60
2023-03-28T20:46:03.165Z,73.73
2023-03-28T20:48:36.228Z,74.19
2023-03-28T20:51:05.906Z,73.10
2023-03-28T20:53:34.719Z,73.17
2023-03-28T20:56:03.340Z,73.95
2023-03-28T20:58:31.617Z,73.76
2023-03-28T21:01:00.416Z,74.11
2023-03-28T21:03:39.311Z,73.98
2023-03-28T21:06:08.625Z,74.10
2023-03-28T21:08:36.776Z,73.84
2023-03-28T21:11:04.170Z,73.54
2023-03-28T21:13:31.501Z,73.38
2023-03-28T21:15:58.839Z,74.20
2023-03-28T21:18:26.153Z,74.07
2023-03-28T21:20:53.457Z,73.96
2023-03-28T21:23:22.560Z,73.58
2023-03-28T21:25:52.782Z,74.16
2023-03-28T21:28:20.371Z,73.90
2023-03-28T21:30:56.764Z,74.22
2023-03-28T21:33:24.557Z,74.08
2023-03-28T21:35:52.081Z,74.57
2023-03-28T21:38:19.775Z,74.85
2023-03-28T21:40:48.910Z,74.93
2023-03-28T21:43:16.318Z,74.93
2023-03-28T21:45:47.738Z,74.69
2023-03-28T21:48:15.663Z,74.42
2023-03-28T21:50:48.430Z,74.81
2023-03-28T21:53:15.917Z,74.86
2023-03-28T21:55:43.217Z,75.59
2023-03-28T21:58:11.802Z,74.92
2023-03-28T22:00:39.638Z,74.94
2023-03-28T22:03:07.490Z,74.83
2023-03-28T22:05:34.846Z,75.77
2023-03-28T22:08:02.412Z,76.11
2023-03-28T22:10:29.747Z,76.01
2023-03-28T22:12:58.682Z,76.35
2023-03-28T22:15:27.353Z,76.04
2023-03-28T22:17:57.850Z,76.14
2023-03-28T22:20:26.534Z,76.24
2023-03-28T22:22:53.793Z,75.92
2023-03-28T22:25:22.466Z,76.04
2023-03-28T22:27:49.811Z,76.25
2023-03-28T22:30:17.083Z,76.52
2023-03-28T22:32:45.869Z,76.67
2023-03-28T22:35:13.166Z,76.68
2023-03-28T22:37:40.709Z,76.91
2023-03-28T22:40:08.792Z,76.77
2023-03-28T22:42:36.710Z,76.27
2023-03-28T22:45:04.565Z,76.36
2023-03-28T22:47:39.113Z,76.31
2023-03-28T22:50:08.996Z,76.63
2023-03-28T22:52:37.887Z,76.10
2023-03-28T22:55:05.657Z,75.82
2023-03-28T22:57:32.975Z,75.53
2023-03-28T23:00:01.737Z,75.68
2023-03-28T23:02:29.114Z,75.45
2023-03-28T23:04:57.060Z,75.01
2023-03-28T23:07:27.550Z,75.09
2023-03-28T23:09:54.868Z,74.92
2023-03-28T23:12:22.446Z,74.80
2023-03-28T23:14:50.168Z,74.66
2023-03-28T23:17:18.931Z,74.65
2023-03-28T23:19:48.170Z,74.97
2023-03-28T23:22:18.553Z,75.06
2023-03-28T23:24:50.411Z,75.08
2023-03-28T23:27:17.767Z,75.01
2023-03-28T23:29:45.195Z,74.69
2023-03-28T23:32:12.466Z,74.28
2023-03-28T23:34:40.238Z,74.93
2023-03-28T23:37:09.932Z,74.39
2023-03-28T23:39:39.231Z,74.87
2023-03-28T23:42:07.805Z,75.10
2023-03-28T23:44:35.363Z,74.41
2023-03-28T23:47:02.626Z,74.75
2023-03-28T23:49:29.916Z,74.39
2023-03-28T23:51:57.203Z,74.18
2023-03-28T23:54:25.299Z,74.01
2023-03-28T23:56:52.663Z,73.22
2023-03-28T23:59:21.772Z,73.30
